1980 WYNNE (1980277N09157)


On this page: IBTrACS data - Map and Plots - Positions - Intensities - Original source data

Summary

Start Oct 2
End Oct 15
Basin WP
LMI 150 kt
Sources jtwc_wp
tokyo
cma
hko
td9636
ds824_wp
In WMO? Yes
Previous storm 1980 IVAN (NA)
Previous in basin 1980 THELMA (WP)
Concurrent storms 1980 THELMA (WP)
1980 VERNON (WP)
1980 IVAN (NA)
1980 WYNNE (WP)
1980 ALEX (WP)
1980 01B (NI)
1980 MADELINE (EP)
Next in basin 1980 ALEX (WP)
Next storm 1980 ALEX (WP)

top of page IBTrACS Data: File Access

top of page HURSAT Data: File Access

Image of storm

top of page Plots:

Map of storm track will not appear if FTP is down
Time series of cyclone Maximum Sustained Wind will not appear if FTP is down
Time series of cyclone Minimum Central Pressure will not appear if FTP is down

top of page Track Data:Position

jtwc_wp tokyo cma hko td9636 ds824_wp
Date Lat Lon Lat Lon Lat Lon Lat Lon Lat Lon Lat Lon
1980-10-02 12:00:00 9.4 156.5 9.4 156.5 9.4 156.5
1980-10-02 18:00:00 8.4 155.7 7.7 156.9 8.4 155.7 8.4 155.7
1980-10-03 00:00:00 7.6 155.0 7.5 155.7 6.8 155.0 7.6 155.0 7.6 155.0
1980-10-03 06:00:00 7.0 154.2 5.3 155.0 7.0 154.7 6.8 154.2 7.0 154.4 7.0 154.2
1980-10-03 12:00:00 6.6 153.7 5.4 154.0 6.5 153.9 6.6 153.5 6.6 153.7 6.6 153.7
1980-10-03 18:00:00 6.2 152.9 5.6 153.0 6.3 153.1 6.2 153.0 6.2 153.0 6.2 152.9
1980-10-04 00:00:00 6.0 152.2 5.7 152.2 6.2 152.3 6.0 152.1 6.0 152.2 6.0 152.2
1980-10-04 06:00:00 6.2 151.1 6.1 151.3 6.3 151.3 6.1 151.3 6.2 151.2 6.2 151.1
1980-10-04 12:00:00 6.7 150.3 6.7 150.5 6.7 150.4 6.6 150.5 6.7 150.3 6.7 150.3
1980-10-04 18:00:00 7.3 149.8 7.3 149.7 7.6 149.6 7.2 149.8 7.3 149.8 7.3 149.8
1980-10-05 00:00:00 8.0 149.5 8.0 149.4 8.0 149.4 7.9 149.3 8.0 149.5 8.0 149.5
1980-10-05 06:00:00 8.8 149.1 8.9 149.1 9.0 149.1 8.7 148.6 8.9 149.0 8.8 149.1
1980-10-05 12:00:00 9.8 148.4 9.1 147.9 9.0 148.0 9.7 147.8 9.8 148.4 9.8 148.4
1980-10-05 18:00:00 10.6 147.5 10.3 146.7 10.2 146.9 10.7 147.0 10.7 147.6 10.6 147.5
1980-10-06 00:00:00 11.7 146.8 11.6 146.6 11.7 146.5 11.7 146.6 11.7 146.8 11.7 146.8
1980-10-06 06:00:00 12.7 146.2 12.8 146.3 12.8 146.3 12.6 146.4 12.8 146.2 12.7 146.2
1980-10-06 12:00:00 13.8 145.7 13.8 146.0 13.4 146.0 13.6 146.0 13.8 145.7 13.8 145.7
1980-10-06 18:00:00 14.7 145.1 14.8 145.3 14.7 145.2 14.6 145.4 14.6 145.1 14.7 145.1
1980-10-07 00:00:00 15.3 144.5 15.3 144.7 15.3 144.7 15.3 144.6 15.3 144.5 15.3 144.5
1980-10-07 06:00:00 15.8 144.0 15.8 144.1 15.8 144.1 15.8 144.1 15.9 144.0 15.8 144.0
1980-10-07 12:00:00 16.3 143.5 16.3 143.6 16.3 143.5 16.2 143.5 16.3 143.5 16.3 143.5
1980-10-07 18:00:00 16.7 143.0 16.8 142.9 16.8 142.8 16.7 142.8 16.7 142.9 16.7 143.0
1980-10-08 00:00:00 17.0 142.1 17.0 142.0 17.0 141.8 17.1 142.1 17.0 142.1 17.0 142.1
1980-10-08 06:00:00 17.4 141.2 17.4 141.0 17.3 140.9 17.5 141.1 17.4 141.2 17.4 141.2
1980-10-08 12:00:00 17.9 140.2 17.8 140.0 17.8 140.0 17.9 140.1 17.9 140.2 17.9 140.2
jtwc_wp tokyo cma hko td9636 ds824_wp
1980-10-08 18:00:00 18.3 139.2 18.5 138.9 18.4 139.1 18.5 139.0 18.3 139.1 18.3 139.2
1980-10-09 00:00:00 18.7 138.0 18.7 138.0 18.8 138.0 18.8 138.1 18.7 138.0 18.7 138.0
1980-10-09 06:00:00 19.1 137.0 19.1 137.0 19.1 137.1 19.1 137.1 19.1 137.0 19.1 137.0
1980-10-09 12:00:00 19.6 136.0 19.5 136.1 19.4 136.0 19.5 136.1 19.6 136.0 19.6 136.0
1980-10-09 18:00:00 20.0 134.9 20.1 134.9 20.0 134.9 20.0 134.9 20.0 134.7 20.0 134.9
1980-10-10 00:00:00 20.5 133.4 20.5 133.6 20.5 133.5 20.5 133.4 20.5 133.4 20.5 133.4
1980-10-10 06:00:00 20.9 132.1 20.9 132.0 21.0 132.1 20.9 132.0 21.0 132.1 20.9 132.1
1980-10-10 12:00:00 21.5 130.8 21.6 130.9 21.6 130.7 21.4 130.8 21.5 130.8 21.5 130.8
1980-10-10 18:00:00 22.0 129.7 22.2 129.7 22.1 129.7 22.0 129.7 22.0 129.7 22.0 129.7
1980-10-11 00:00:00 22.6 128.8 22.7 128.9 22.6 128.8 22.6 128.8 22.6 128.8 22.6 128.8
1980-10-11 06:00:00 23.3 128.0 23.4 127.9 23.1 128.0 23.1 128.0 23.2 127.9 23.3 128.0
1980-10-11 12:00:00 23.8 127.2 23.7 127.2 23.6 127.1 23.7 127.3 23.8 127.2 23.8 127.2
1980-10-11 18:00:00 24.2 126.6 24.4 126.4 24.2 126.6 24.2 126.4 24.3 126.6 24.2 126.6
1980-10-12 00:00:00 24.8 126.1 24.7 126.0 24.8 126.1 24.8 126.1 24.8 126.1 24.8 126.1
1980-10-12 06:00:00 25.4 125.8 25.3 125.8 25.3 125.7 25.3 125.8 25.4 125.8 25.4 125.8
1980-10-12 12:00:00 26.1 125.8 26.1 125.7 26.1 125.5 26.0 125.7 26.1 125.8 26.1 125.8
1980-10-12 18:00:00 27.0 125.9 26.9 125.9 26.9 125.9 26.8 125.8 27.0 125.9 27.0 125.9
1980-10-13 00:00:00 27.9 126.4 27.8 126.2 28.0 126.3 27.9 126.3 27.9 126.4 27.9 126.4
1980-10-13 06:00:00 28.8 127.2 28.8 127.2 28.9 127.3 29.1 127.3 28.9 127.2 28.8 127.2
1980-10-13 12:00:00 29.8 128.5 29.8 128.6 29.6 128.4 29.8 128.6 29.8 128.5 29.8 128.5
1980-10-13 18:00:00 30.5 130.5 30.5 130.7 30.5 130.4 30.5 130.5 30.6 130.4 30.5 130.5
1980-10-14 00:00:00 31.5 133.0 31.4 133.0 31.4 133.0 31.4 133.3 31.5 133.0 31.5 133.0
1980-10-14 06:00:00 32.6 136.4 32.5 136.2 32.7 136.1 32.5 136.2 32.7 136.2 32.6 136.4
1980-10-14 12:00:00 34.0 140.1 33.6 140.2 33.7 140.2 33.8 140.3 34.0 140.1 34.0 140.1
jtwc_wp tokyo cma hko td9636 ds824_wp
1980-10-14 18:00:00 35.5 145.0 35.0 144.5 34.7 145.0 35.0 145.0 35.1 144.5 35.5 145.0
1980-10-15 00:00:00 36.0 149.2 36.0 149.0 35.8 150.0 36.0 149.2 36.0 149.2
1980-10-15 06:00:00 36.5 155.0
1980-10-15 12:00:00 38.0 161.0
1980-10-15 18:00:00 39.0 170.0

top of pageTrack Data:Intensity

jtwc_wp tokyo cma hko td9636 ds824_wp
Date Wind Pres Wind Pres Wind Pres Wind Pres Wind Pres Wind Pres
1980-10-02 12:00:00 20. 20. 20.
1980-10-02 18:00:00 20. 23. 1006. 20. 20.
1980-10-03 00:00:00 25. 23. 1006. 25. 1000. 25. 25.
1980-10-03 06:00:00 35. 1006. 29. 1000. 25. 992. 25. 35.
1980-10-03 12:00:00 50. 1004. 29. 1000. 35. 987. 50. 50.
1980-10-03 18:00:00 60. 45. 990. 29. 1000. 45. 982. 50. 60.
1980-10-04 00:00:00 70. 50. 985. 39. 995. 65. 975. 70. 70.
1980-10-04 06:00:00 60. 55. 980. 39. 995. 60. 980. 70. 60.
1980-10-04 12:00:00 50. 50. 990. 39. 995. 60. 988. 50. 50.
1980-10-04 18:00:00 45. 50. 994. 29. 1000. 45. 995. 50. 45.
1980-10-05 00:00:00 40. 45. 996. 29. 1000. 40. 999. 40. 40.
1980-10-05 06:00:00 65. 45. 996. 29. 1000. 45. 997. 40. 65.
1980-10-05 12:00:00 45. 45. 998. 29. 1000. 45. 1007. 45. 45.
1980-10-05 18:00:00 30. 40. 1000. 29. 1000. 45. 1008. 45. 30.
1980-10-06 00:00:00 45. 45. 1000. 39. 995. 45. 998. 45. 45.
1980-10-06 06:00:00 60. 50. 996. 49. 990. 45. 994. 45. 60.
1980-10-06 12:00:00 45. 50. 1000. 49. 990. 45. 999. 45. 45.
1980-10-06 18:00:00 50. 45. 998. 49. 990. 35. 997. 45. 50.
1980-10-07 00:00:00 50. 45. 994. 49. 990. 40. 994. 50. 50.
1980-10-07 06:00:00 50. 45. 990. 49. 988. 40. 990. 50. 50.
1980-10-07 12:00:00 60. 45. 985. 49. 988. 45. 988. 60. 60.
1980-10-07 18:00:00 65. 55. 980. 58. 980. 50. 983. 60. 65.
1980-10-08 00:00:00 70. 55. 975. 68. 980. 55. 980. 70. 70.
1980-10-08 06:00:00 75. 65. 965. 78. 965. 60. 965. 70. 75.
1980-10-08 12:00:00 80. 75. 950. 87. 950. 65. 950. 80. 80.
jtwc_wp tokyo cma hko td9636 ds824_wp
1980-10-08 18:00:00 90. 85. 930. 126. 930. 80. 930. 80. 90.
1980-10-09 00:00:00 120. 110. 890. 136. 890. 115. 895. 120. 120.
1980-10-09 06:00:00 150. 120. 890. 136. 898. 125. 890. 120. 150.
1980-10-09 12:00:00 145. 120. 900. 136. 898. 125. 895. 145. 145.
1980-10-09 18:00:00 140. 110. 900. 126. 905. 125. 900. 145. 140.
1980-10-10 00:00:00 135. 110. 910. 126. 910. 125. 910. 135. 135.
1980-10-10 06:00:00 130. 110. 910. 126. 910. 120. 910. 135. 130.
1980-10-10 12:00:00 125. 110. 905. 126. 906. 120. 905. 125. 125.
1980-10-10 18:00:00 125. 110. 910. 126. 908. 120. 910. 125. 125.
1980-10-11 00:00:00 120. 110. 920. 117. 915. 120. 920. 120. 120.
1980-10-11 06:00:00 115. 100. 920. 117. 915. 120. 915. 120. 115.
1980-10-11 12:00:00 115. 100. 915. 117. 915. 115. 915. 115. 115.
1980-10-11 18:00:00 110. 100. 915. 107. 920. 110. 920. 115. 110.
1980-10-12 00:00:00 105. 100. 925. 97. 920. 105. 925. 105. 105.
1980-10-12 06:00:00 100. 100. 925. 97. 925. 100. 920. 105. 100.
1980-10-12 12:00:00 100. 100. 925. 97. 925. 90. 925. 100. 100.
1980-10-12 18:00:00 100. 90. 930. 97. 930. 85. 930. 100. 100.
1980-10-13 00:00:00 95. 90. 940. 97. 930. 80. 935. 95. 95.
1980-10-13 06:00:00 90. 90. 945. 87. 935. 80. 945. 95. 90.
1980-10-13 12:00:00 90. 90. 950. 87. 945. 80. 950. 90. 90.
1980-10-13 18:00:00 90. 90. 950. 78. 945. 80. 950. 90. 90.
1980-10-14 00:00:00 85. 90. 950. 78. 950. 75. 955. 85. 85.
1980-10-14 06:00:00 80. 80. 960. 78. 960. 70. 960. 85. 80.
1980-10-14 12:00:00 70. 75. 965. 68. 965. 65. 970. 70. 70.
jtwc_wp tokyo cma hko td9636 ds824_wp
1980-10-14 18:00:00 60. 60. 975. 58. 975. 55. 980. 70. 60.
1980-10-15 00:00:00 50. 984. 49. 980. 50. 50.
1980-10-15 06:00:00 992.
1980-10-15 12:00:00 996.
1980-10-15 18:00:00 1000.

top of page Links to source data

Source Source file Format
jtwc_wp bwp231980.txt ATCF
tokyo bst_all.txt:Line=29524:WYNNE:8019 JMA text table
cma CH1980BST.txt:Storm=27:Wynne CMA text table
hko tc-besttrack-data.txt:Line=14011:WYNNE HKO Text table
td9636 cons_worldwide_trop_cyclone_18710101-19891231-003:Line=27375 TD 9636
ds824_wp w_npac.dat:991:WYNNE HURDAT